sensor_id;sensor_type;location;lat;lon;timestamp;P1;durP1;ratioP1;P2;durP2;ratioP2
71856;SDS011;63344;46.980;28.882;2023-02-28T00:01:49;16.25;;;8.15;;
71856;SDS011;63344;46.980;28.882;2023-02-28T00:04:16;12.73;;;7.22;;
71856;SDS011;63344;46.980;28.882;2023-02-28T00:06:43;9.25;;;5.57;;
71856;SDS011;63344;46.980;28.882;2023-02-28T00:09:10;15.68;;;7.82;;
71856;SDS011;63344;46.980;28.882;2023-02-28T00:11:37;14.93;;;6.03;;
71856;SDS011;63344;46.980;28.882;2023-02-28T00:14:11;14.15;;;6.38;;
71856;SDS011;63344;46.980;28.882;2023-02-28T00:16:38;14.43;;;6.50;;
71856;SDS011;63344;46.980;28.882;2023-02-28T00:19:05;13.93;;;7.05;;
71856;SDS011;63344;46.980;28.882;2023-02-28T00:21:33;10.80;;;5.45;;
71856;SDS011;63344;46.980;28.882;2023-02-28T00:24:00;17.02;;;7.95;;
71856;SDS011;63344;46.980;28.882;2023-02-28T00:26:27;16.88;;;8.30;;
71856;SDS011;63344;46.980;28.882;2023-02-28T00:28:54;10.68;;;5.90;;
71856;SDS011;63344;46.980;28.882;2023-02-28T00:31:22;16.73;;;7.93;;
71856;SDS011;63344;46.980;28.882;2023-02-28T00:33:49;11.23;;;6.25;;
71856;SDS011;63344;46.980;28.882;2023-02-28T00:36:18;16.80;;;9.13;;
71856;SDS011;63344;46.980;28.882;2023-02-28T00:38:45;17.95;;;7.95;;
71856;SDS011;63344;46.980;28.882;2023-02-28T00:41:13;18.90;;;9.48;;
71856;SDS011;63344;46.980;28.882;2023-02-28T00:43:40;20.80;;;10.13;;
71856;SDS011;63344;46.980;28.882;2023-02-28T00:46:07;19.35;;;9.93;;
71856;SDS011;63344;46.980;28.882;2023-02-28T00:48:35;24.20;;;11.07;;
71856;SDS011;63344;46.980;28.882;2023-02-28T00:51:03;23.65;;;10.32;;
71856;SDS011;63344;46.980;28.882;2023-02-28T00:53:30;24.95;;;11.15;;
71856;SDS011;63344;46.980;28.882;2023-02-28T00:55:59;11.35;;;5.85;;
71856;SDS011;63344;46.980;28.882;2023-02-28T00:58:27;23.77;;;11.20;;
71856;SDS011;63344;46.980;28.882;2023-02-28T01:00:54;22.90;;;10.68;;
71856;SDS011;63344;46.980;28.882;2023-02-28T01:03:22;26.85;;;11.10;;
71856;SDS011;63344;46.980;28.882;2023-02-28T01:05:50;18.08;;;7.60;;
71856;SDS011;63344;46.980;28.882;2023-02-28T01:08:17;17.10;;;8.50;;
71856;SDS011;63344;46.980;28.882;2023-02-28T01:10:44;19.92;;;9.25;;
71856;SDS011;63344;46.980;28.882;2023-02-28T01:13:11;21.30;;;8.75;;
71856;SDS011;63344;46.980;28.882;2023-02-28T01:15:40;22.05;;;10.25;;
71856;SDS011;63344;46.980;28.882;2023-02-28T01:18:10;18.23;;;8.20;;
71856;SDS011;63344;46.980;28.882;2023-02-28T01:20:38;21.98;;;9.98;;
71856;SDS011;63344;46.980;28.882;2023-02-28T01:23:05;23.23;;;10.98;;
71856;SDS011;63344;46.980;28.882;2023-02-28T01:25:34;19.77;;;9.73;;
71856;SDS011;63344;46.980;28.882;2023-02-28T01:28:02;14.95;;;6.47;;
71856;SDS011;63344;46.980;28.882;2023-02-28T01:30:30;29.60;;;8.35;;
71856;SDS011;63344;46.980;28.882;2023-02-28T01:32:57;18.00;;;9.32;;
71856;SDS011;63344;46.980;28.882;2023-02-28T01:35:25;16.02;;;7.93;;
71856;SDS011;63344;46.980;28.882;2023-02-28T01:37:52;22.98;;;10.68;;
71856;SDS011;63344;46.980;28.882;2023-02-28T01:40:20;17.10;;;7.43;;
71856;SDS011;63344;46.980;28.882;2023-02-28T01:42:47;17.27;;;8.43;;
71856;SDS011;63344;46.980;28.882;2023-02-28T01:45:25;15.80;;;7.75;;
71856;SDS011;63344;46.980;28.882;2023-02-28T01:47:58;18.48;;;9.88;;
71856;SDS011;63344;46.980;28.882;2023-02-28T01:50:31;19.50;;;9.13;;
71856;SDS011;63344;46.980;28.882;2023-02-28T01:53:04;16.92;;;8.57;;
71856;SDS011;63344;46.980;28.882;2023-02-28T01:55:38;23.83;;;10.93;;
71856;SDS011;63344;46.980;28.882;2023-02-28T01:58:07;17.35;;;8.00;;
71856;SDS011;63344;46.980;28.882;2023-02-28T02:00:36;10.82;;;6.45;;
71856;SDS011;63344;46.980;28.882;2023-02-28T02:03:09;18.48;;;8.32;;
71856;SDS011;63344;46.980;28.882;2023-02-28T02:05:42;26.38;;;9.95;;
71856;SDS011;63344;46.980;28.882;2023-02-28T02:08:19;15.73;;;7.68;;
71856;SDS011;63344;46.980;28.882;2023-02-28T02:10:53;18.25;;;7.72;;
71856;SDS011;63344;46.980;28.882;2023-02-28T02:18:54;29.95;;;13.23;;
71856;SDS011;63344;46.980;28.882;2023-02-28T02:37:55;20.88;;;11.23;;
71856;SDS011;63344;46.980;28.882;2023-02-28T02:45:23;19.25;;;8.73;;
71856;SDS011;63344;46.980;28.882;2023-02-28T02:48:06;23.77;;;10.77;;
71856;SDS011;63344;46.980;28.882;2023-02-28T02:53:22;21.85;;;10.70;;
71856;SDS011;63344;46.980;28.882;2023-02-28T02:55:54;22.60;;;11.02;;
71856;SDS011;63344;46.980;28.882;2023-02-28T02:58:24;17.55;;;9.18;;
71856;SDS011;63344;46.980;28.882;2023-02-28T03:00:56;23.45;;;12.05;;
71856;SDS011;63344;46.980;28.882;2023-02-28T03:03:28;17.33;;;9.15;;
71856;SDS011;63344;46.980;28.882;2023-02-28T03:05:58;18.35;;;10.40;;
71856;SDS011;63344;46.980;28.882;2023-02-28T03:08:28;16.80;;;8.15;;
71856;SDS011;63344;46.980;28.882;2023-02-28T03:10:59;13.20;;;6.57;;
71856;SDS011;63344;46.980;28.882;2023-02-28T03:19:03;14.25;;;7.35;;
71856;SDS011;63344;46.980;28.882;2023-02-28T03:21:58;14.73;;;6.32;;
71856;SDS011;63344;46.980;28.882;2023-02-28T03:24:27;19.23;;;8.82;;
71856;SDS011;63344;46.980;28.882;2023-02-28T03:30:10;20.75;;;8.57;;
71856;SDS011;63344;46.980;28.882;2023-02-28T03:32:57;16.73;;;8.23;;
71856;SDS011;63344;46.980;28.882;2023-02-28T03:35:45;19.40;;;9.00;;
71856;SDS011;63344;46.980;28.882;2023-02-28T03:38:21;13.18;;;6.05;;
71856;SDS011;63344;46.980;28.882;2023-02-28T03:40:51;24.42;;;9.98;;
71856;SDS011;63344;46.980;28.882;2023-02-28T03:43:27;23.67;;;10.02;;
71856;SDS011;63344;46.980;28.882;2023-02-28T03:45:58;23.17;;;10.23;;
71856;SDS011;63344;46.980;28.882;2023-02-28T03:48:31;12.60;;;6.25;;
71856;SDS011;63344;46.980;28.882;2023-02-28T03:51:05;25.80;;;11.45;;
71856;SDS011;63344;46.980;28.882;2023-02-28T03:53:39;17.73;;;8.05;;
71856;SDS011;63344;46.980;28.882;2023-02-28T03:59:01;24.50;;;10.68;;
71856;SDS011;63344;46.980;28.882;2023-02-28T04:01:36;25.98;;;12.48;;
71856;SDS011;63344;46.980;28.882;2023-02-28T04:04:08;17.95;;;7.70;;
71856;SDS011;63344;46.980;28.882;2023-02-28T04:06:37;21.10;;;9.20;;
71856;SDS011;63344;46.980;28.882;2023-02-28T04:09:07;10.35;;;5.95;;
71856;SDS011;63344;46.980;28.882;2023-02-28T04:11:42;21.00;;;9.00;;
71856;SDS011;63344;46.980;28.882;2023-02-28T04:14:14;23.95;;;11.10;;
71856;SDS011;63344;46.980;28.882;2023-02-28T04:16:44;28.25;;;12.68;;
71856;SDS011;63344;46.980;28.882;2023-02-28T04:19:11;22.80;;;10.18;;
71856;SDS011;63344;46.980;28.882;2023-02-28T04:21:43;24.80;;;11.55;;
71856;SDS011;63344;46.980;28.882;2023-02-28T04:24:13;26.75;;;11.27;;
71856;SDS011;63344;46.980;28.882;2023-02-28T04:26:45;21.15;;;9.48;;
71856;SDS011;63344;46.980;28.882;2023-02-28T04:29:17;26.27;;;11.10;;
71856;SDS011;63344;46.980;28.882;2023-02-28T04:31:48;29.60;;;13.70;;
71856;SDS011;63344;46.980;28.882;2023-02-28T04:34:16;23.75;;;9.70;;
71856;SDS011;63344;46.980;28.882;2023-02-28T04:36:46;16.55;;;7.35;;
71856;SDS011;63344;46.980;28.882;2023-02-28T04:39:34;20.92;;;9.20;;
71856;SDS011;63344;46.980;28.882;2023-02-28T04:42:03;21.30;;;10.13;;
71856;SDS011;63344;46.980;28.882;2023-02-28T04:44:30;17.05;;;9.23;;
71856;SDS011;63344;46.980;28.882;2023-02-28T04:46:59;26.00;;;11.77;;
71856;SDS011;63344;46.980;28.882;2023-02-28T04:49:26;28.83;;;12.43;;
71856;SDS011;63344;46.980;28.882;2023-02-28T04:51:53;16.92;;;7.82;;
71856;SDS011;63344;46.980;28.882;2023-02-28T04:54:21;23.15;;;11.35;;
71856;SDS011;63344;46.980;28.882;2023-02-28T04:56:48;24.52;;;11.07;;
71856;SDS011;63344;46.980;28.882;2023-02-28T04:59:16;20.50;;;9.38;;
71856;SDS011;63344;46.980;28.882;2023-02-28T05:01:48;18.70;;;8.27;;
71856;SDS011;63344;46.980;28.882;2023-02-28T05:04:16;27.10;;;12.38;;
71856;SDS011;63344;46.980;28.882;2023-02-28T05:06:44;26.90;;;12.48;;
71856;SDS011;63344;46.980;28.882;2023-02-28T05:09:25;25.13;;;11.15;;
71856;SDS011;63344;46.980;28.882;2023-02-28T05:12:08;23.38;;;10.68;;
71856;SDS011;63344;46.980;28.882;2023-02-28T05:14:35;24.38;;;11.27;;
71856;SDS011;63344;46.980;28.882;2023-02-28T05:17:07;21.05;;;9.25;;
71856;SDS011;63344;46.980;28.882;2023-02-28T05:19:35;15.73;;;7.53;;
71856;SDS011;63344;46.980;28.882;2023-02-28T05:22:31;18.55;;;9.05;;
71856;SDS011;63344;46.980;28.882;2023-02-28T05:24:59;18.20;;;6.55;;
71856;SDS011;63344;46.980;28.882;2023-02-28T05:27:27;21.98;;;10.32;;
71856;SDS011;63344;46.980;28.882;2023-02-28T05:29:57;16.80;;;8.95;;
71856;SDS011;63344;46.980;28.882;2023-02-28T05:32:26;21.08;;;10.57;;
71856;SDS011;63344;46.980;28.882;2023-02-28T05:34:56;21.08;;;8.18;;
71856;SDS011;63344;46.980;28.882;2023-02-28T05:40:17;20.15;;;9.60;;
71856;SDS011;63344;46.980;28.882;2023-02-28T05:42:47;17.50;;;9.43;;
71856;SDS011;63344;46.980;28.882;2023-02-28T05:45:17;19.50;;;8.20;;
71856;SDS011;63344;46.980;28.882;2023-02-28T05:47:54;15.88;;;8.90;;
71856;SDS011;63344;46.980;28.882;2023-02-28T05:50:22;22.77;;;11.48;;
71856;SDS011;63344;46.980;28.882;2023-02-28T05:52:50;26.20;;;11.73;;
71856;SDS011;63344;46.980;28.882;2023-02-28T05:55:20;19.67;;;10.10;;
71856;SDS011;63344;46.980;28.882;2023-02-28T05:57:47;19.50;;;10.60;;
71856;SDS011;63344;46.980;28.882;2023-02-28T06:00:15;19.48;;;9.80;;
71856;SDS011;63344;46.980;28.882;2023-02-28T06:02:44;20.85;;;9.65;;
71856;SDS011;63344;46.980;28.882;2023-02-28T06:05:13;28.10;;;12.98;;
71856;SDS011;63344;46.980;28.882;2023-02-28T06:07:41;24.20;;;11.00;;
71856;SDS011;63344;46.980;28.882;2023-02-28T06:10:10;26.08;;;10.15;;
71856;SDS011;63344;46.980;28.882;2023-02-28T06:12:37;20.15;;;9.98;;
71856;SDS011;63344;46.980;28.882;2023-02-28T06:15:05;17.77;;;6.78;;
71856;SDS011;63344;46.980;28.882;2023-02-28T06:17:33;22.50;;;9.90;;
71856;SDS011;63344;46.980;28.882;2023-02-28T06:20:01;23.20;;;9.75;;
71856;SDS011;63344;46.980;28.882;2023-02-28T06:22:31;28.65;;;12.60;;
71856;SDS011;63344;46.980;28.882;2023-02-28T06:25:00;24.77;;;12.07;;
71856;SDS011;63344;46.980;28.882;2023-02-28T06:27:28;13.55;;;6.63;;
71856;SDS011;63344;46.980;28.882;2023-02-28T06:29:55;18.27;;;8.27;;
71856;SDS011;63344;46.980;28.882;2023-02-28T06:32:22;23.10;;;8.75;;
71856;SDS011;63344;46.980;28.882;2023-02-28T06:34:49;23.70;;;10.23;;
71856;SDS011;63344;46.980;28.882;2023-02-28T06:37:17;23.08;;;9.60;;
71856;SDS011;63344;46.980;28.882;2023-02-28T06:39:44;21.25;;;9.23;;
71856;SDS011;63344;46.980;28.882;2023-02-28T06:42:12;22.00;;;8.90;;
71856;SDS011;63344;46.980;28.882;2023-02-28T06:44:39;16.38;;;7.03;;
71856;SDS011;63344;46.980;28.882;2023-02-28T06:47:06;21.80;;;9.90;;
71856;SDS011;63344;46.980;28.882;2023-02-28T06:49:34;27.00;;;12.55;;
71856;SDS011;63344;46.980;28.882;2023-02-28T06:52:02;20.25;;;9.65;;
71856;SDS011;63344;46.980;28.882;2023-02-28T06:54:29;13.75;;;6.53;;
71856;SDS011;63344;46.980;28.882;2023-02-28T06:56:57;23.02;;;9.68;;
71856;SDS011;63344;46.980;28.882;2023-02-28T06:59:25;25.45;;;8.07;;
71856;SDS011;63344;46.980;28.882;2023-02-28T07:01:52;18.85;;;9.15;;
71856;SDS011;63344;46.980;28.882;2023-02-28T07:04:20;26.33;;;11.50;;
71856;SDS011;63344;46.980;28.882;2023-02-28T07:06:49;29.10;;;11.02;;
71856;SDS011;63344;46.980;28.882;2023-02-28T07:09:16;19.15;;;8.20;;
71856;SDS011;63344;46.980;28.882;2023-02-28T07:11:44;25.20;;;10.80;;
71856;SDS011;63344;46.980;28.882;2023-02-28T07:14:11;22.23;;;10.93;;
71856;SDS011;63344;46.980;28.882;2023-02-28T07:16:38;27.42;;;12.85;;
71856;SDS011;63344;46.980;28.882;2023-02-28T07:19:06;31.58;;;15.00;;
71856;SDS011;63344;46.980;28.882;2023-02-28T07:21:36;24.20;;;11.10;;
71856;SDS011;63344;46.980;28.882;2023-02-28T07:24:07;20.23;;;8.85;;
71856;SDS011;63344;46.980;28.882;2023-02-28T07:26:46;21.98;;;9.02;;
71856;SDS011;63344;46.980;28.882;2023-02-28T07:29:15;16.45;;;8.23;;
71856;SDS011;63344;46.980;28.882;2023-02-28T07:31:42;28.73;;;13.30;;
71856;SDS011;63344;46.980;28.882;2023-02-28T07:34:15;21.77;;;10.20;;
71856;SDS011;63344;46.980;28.882;2023-02-28T07:36:42;26.20;;;10.07;;
71856;SDS011;63344;46.980;28.882;2023-02-28T07:39:09;16.02;;;8.57;;
71856;SDS011;63344;46.980;28.882;2023-02-28T07:41:37;28.13;;;12.55;;
71856;SDS011;63344;46.980;28.882;2023-02-28T07:44:31;21.13;;;9.25;;
71856;SDS011;63344;46.980;28.882;2023-02-28T07:46:58;31.25;;;12.65;;
71856;SDS011;63344;46.980;28.882;2023-02-28T07:49:26;21.45;;;10.60;;
71856;SDS011;63344;46.980;28.882;2023-02-28T07:51:53;27.50;;;12.18;;
71856;SDS011;63344;46.980;28.882;2023-02-28T07:54:20;28.23;;;12.70;;
71856;SDS011;63344;46.980;28.882;2023-02-28T07:56:48;25.80;;;12.55;;
71856;SDS011;63344;46.980;28.882;2023-02-28T07:59:15;19.60;;;9.15;;
71856;SDS011;63344;46.980;28.882;2023-02-28T08:01:42;28.73;;;12.13;;
71856;SDS011;63344;46.980;28.882;2023-02-28T08:04:11;25.88;;;11.73;;
71856;SDS011;63344;46.980;28.882;2023-02-28T08:06:38;18.77;;;8.52;;
71856;SDS011;63344;46.980;28.882;2023-02-28T08:09:05;27.52;;;12.52;;
71856;SDS011;63344;46.980;28.882;2023-02-28T08:11:33;26.50;;;13.27;;
71856;SDS011;63344;46.980;28.882;2023-02-28T08:14:00;26.15;;;12.00;;
71856;SDS011;63344;46.980;28.882;2023-02-28T08:16:28;20.33;;;9.80;;
71856;SDS011;63344;46.980;28.882;2023-02-28T08:18:55;30.83;;;12.40;;
71856;SDS011;63344;46.980;28.882;2023-02-28T08:21:22;25.50;;;12.23;;
71856;SDS011;63344;46.980;28.882;2023-02-28T08:23:50;18.92;;;9.15;;
71856;SDS011;63344;46.980;28.882;2023-02-28T08:26:18;17.08;;;6.53;;
71856;SDS011;63344;46.980;28.882;2023-02-28T08:28:46;22.75;;;10.65;;
71856;SDS011;63344;46.980;28.882;2023-02-28T08:31:14;24.75;;;10.88;;
71856;SDS011;63344;46.980;28.882;2023-02-28T08:36:11;22.20;;;10.60;;
71856;SDS011;63344;46.980;28.882;2023-02-28T08:38:39;16.15;;;7.85;;
71856;SDS011;63344;46.980;28.882;2023-02-28T08:41:07;19.10;;;10.43;;
71856;SDS011;63344;46.980;28.882;2023-02-28T08:43:37;24.42;;;10.30;;
71856;SDS011;63344;46.980;28.882;2023-02-28T08:46:06;20.70;;;9.50;;
71856;SDS011;63344;46.980;28.882;2023-02-28T08:48:35;17.45;;;7.43;;
71856;SDS011;63344;46.980;28.882;2023-02-28T08:51:06;18.05;;;8.73;;
71856;SDS011;63344;46.980;28.882;2023-02-28T08:53:36;21.67;;;10.90;;
71856;SDS011;63344;46.980;28.882;2023-02-28T08:56:06;17.00;;;8.27;;
71856;SDS011;63344;46.980;28.882;2023-02-28T08:58:35;18.25;;;8.75;;
71856;SDS011;63344;46.980;28.882;2023-02-28T09:01:07;15.68;;;8.43;;
71856;SDS011;63344;46.980;28.882;2023-02-28T09:03:39;20.17;;;9.73;;
71856;SDS011;63344;46.980;28.882;2023-02-28T09:08:36;16.08;;;6.95;;
71856;SDS011;63344;46.980;28.882;2023-02-28T09:11:03;18.60;;;8.50;;
71856;SDS011;63344;46.980;28.882;2023-02-28T09:13:31;16.08;;;8.38;;
71856;SDS011;63344;46.980;28.882;2023-02-28T09:16:00;17.25;;;8.30;;
71856;SDS011;63344;46.980;28.882;2023-02-28T09:18:28;16.65;;;9.48;;
71856;SDS011;63344;46.980;28.882;2023-02-28T09:20:58;15.52;;;7.90;;
71856;SDS011;63344;46.980;28.882;2023-02-28T09:23:25;17.00;;;8.93;;
71856;SDS011;63344;46.980;28.882;2023-02-28T09:28:45;18.05;;;9.05;;
71856;SDS011;63344;46.980;28.882;2023-02-28T09:31:13;16.58;;;7.68;;
71856;SDS011;63344;46.980;28.882;2023-02-28T09:33:48;11.27;;;5.63;;
71856;SDS011;63344;46.980;28.882;2023-02-28T09:36:17;20.90;;;9.93;;
71856;SDS011;63344;46.980;28.882;2023-02-28T09:38:46;11.65;;;7.03;;
71856;SDS011;63344;46.980;28.882;2023-02-28T09:41:16;13.60;;;6.90;;
71856;SDS011;63344;46.980;28.882;2023-02-28T09:43:48;15.13;;;8.35;;
71856;SDS011;63344;46.980;28.882;2023-02-28T09:46:39;17.52;;;7.45;;
71856;SDS011;63344;46.980;28.882;2023-02-28T09:49:12;22.83;;;9.38;;
71856;SDS011;63344;46.980;28.882;2023-02-28T09:54:54;17.23;;;7.53;;
71856;SDS011;63344;46.980;28.882;2023-02-28T10:00:19;18.40;;;7.57;;
71856;SDS011;63344;46.980;28.882;2023-02-28T10:11:28;12.05;;;6.32;;
71856;SDS011;63344;46.980;28.882;2023-02-28T10:14:02;18.58;;;9.35;;
71856;SDS011;63344;46.980;28.882;2023-02-28T10:16:46;17.00;;;8.68;;
71856;SDS011;63344;46.980;28.882;2023-02-28T10:21:59;15.60;;;7.65;;
71856;SDS011;63344;46.980;28.882;2023-02-28T10:24:44;18.10;;;7.60;;
71856;SDS011;63344;46.980;28.882;2023-02-28T10:29:51;14.57;;;6.13;;
71856;SDS011;63344;46.980;28.882;2023-02-28T10:32:35;12.93;;;6.53;;
71856;SDS011;63344;46.980;28.882;2023-02-28T10:35:15;16.50;;;7.75;;
71856;SDS011;63344;46.980;28.882;2023-02-28T10:37:47;13.35;;;5.65;;
71856;SDS011;63344;46.980;28.882;2023-02-28T10:46:13;15.68;;;7.05;;
71856;SDS011;63344;46.980;28.882;2023-02-28T10:49:06;17.02;;;7.60;;
71856;SDS011;63344;46.980;28.882;2023-02-28T10:51:59;20.95;;;8.30;;
71856;SDS011;63344;46.980;28.882;2023-02-28T10:54:32;15.18;;;8.10;;
71856;SDS011;63344;46.980;28.882;2023-02-28T10:57:05;12.15;;;6.10;;
71856;SDS011;63344;46.980;28.882;2023-02-28T10:59:50;10.90;;;6.38;;
71856;SDS011;63344;46.980;28.882;2023-02-28T11:02:29;15.45;;;6.53;;
71856;SDS011;63344;46.980;28.882;2023-02-28T11:04:57;10.02;;;5.57;;
71856;SDS011;63344;46.980;28.882;2023-02-28T11:07:25;13.02;;;5.70;;
71856;SDS011;63344;46.980;28.882;2023-02-28T11:09:57;11.32;;;5.85;;
71856;SDS011;63344;46.980;28.882;2023-02-28T11:12:36;12.13;;;5.75;;
71856;SDS011;63344;46.980;28.882;2023-02-28T11:15:21;9.70;;;5.43;;
71856;SDS011;63344;46.980;28.882;2023-02-28T11:17:55;12.63;;;7.00;;
71856;SDS011;63344;46.980;28.882;2023-02-28T11:20:49;12.90;;;6.25;;
71856;SDS011;63344;46.980;28.882;2023-02-28T11:23:20;21.38;;;7.13;;
71856;SDS011;63344;46.980;28.882;2023-02-28T11:25:54;14.63;;;7.30;;
71856;SDS011;63344;46.980;28.882;2023-02-28T11:28:27;17.13;;;8.20;;
71856;SDS011;63344;46.980;28.882;2023-02-28T11:31:00;15.70;;;7.10;;
71856;SDS011;63344;46.980;28.882;2023-02-28T11:36:10;10.73;;;5.25;;
71856;SDS011;63344;46.980;28.882;2023-02-28T11:38:47;11.50;;;6.55;;
71856;SDS011;63344;46.980;28.882;2023-02-28T11:47:06;12.68;;;5.78;;
71856;SDS011;63344;46.980;28.882;2023-02-28T12:06:04;9.02;;;5.38;;
71856;SDS011;63344;46.980;28.882;2023-02-28T12:17:36;17.65;;;7.10;;
71856;SDS011;63344;46.980;28.882;2023-02-28T12:32:09;11.13;;;5.28;;
71856;SDS011;63344;46.980;28.882;2023-02-28T12:34:55;8.40;;;4.43;;
71856;SDS011;63344;46.980;28.882;2023-02-28T12:37:35;14.63;;;6.60;;
71856;SDS011;63344;46.980;28.882;2023-02-28T12:40:22;8.02;;;3.67;;
71856;SDS011;63344;46.980;28.882;2023-02-28T12:42:56;11.52;;;5.88;;
71856;SDS011;63344;46.980;28.882;2023-02-28T12:45:53;16.55;;;6.57;;
71856;SDS011;63344;46.980;28.882;2023-02-28T12:48:46;9.43;;;5.68;;
71856;SDS011;63344;46.980;28.882;2023-02-28T12:51:24;10.95;;;5.50;;
71856;SDS011;63344;46.980;28.882;2023-02-28T12:54:07;11.75;;;6.00;;
71856;SDS011;63344;46.980;28.882;2023-02-28T12:59:31;26.95;;;9.10;;
71856;SDS011;63344;46.980;28.882;2023-02-28T13:14:02;9.68;;;5.32;;
71856;SDS011;63344;46.980;28.882;2023-02-28T13:19:19;9.65;;;4.70;;
71856;SDS011;63344;46.980;28.882;2023-02-28T13:21:50;9.85;;;4.75;;
71856;SDS011;63344;46.980;28.882;2023-02-28T13:34:34;11.65;;;4.65;;
71856;SDS011;63344;46.980;28.882;2023-02-28T13:37:41;10.80;;;5.32;;
71856;SDS011;63344;46.980;28.882;2023-02-28T13:47:43;17.17;;;4.53;;
71856;SDS011;63344;46.980;28.882;2023-02-28T13:50:22;7.53;;;4.10;;
71856;SDS011;63344;46.980;28.882;2023-02-28T14:07:19;10.38;;;5.43;;
71856;SDS011;63344;46.980;28.882;2023-02-28T14:10:03;7.80;;;5.28;;
71856;SDS011;63344;46.980;28.882;2023-02-28T14:12:54;15.98;;;6.72;;
71856;SDS011;63344;46.980;28.882;2023-02-28T14:18:47;11.95;;;5.03;;
71856;SDS011;63344;46.980;28.882;2023-02-28T14:21:24;7.40;;;3.50;;
71856;SDS011;63344;46.980;28.882;2023-02-28T14:29:59;6.63;;;3.35;;
71856;SDS011;63344;46.980;28.882;2023-02-28T14:32:51;11.35;;;5.30;;
71856;SDS011;63344;46.980;28.882;2023-02-28T14:39:05;12.85;;;5.63;;
71856;SDS011;63344;46.980;28.882;2023-02-28T14:41:29;9.20;;;4.70;;
71856;SDS011;63344;46.980;28.882;2023-02-28T14:44:13;10.38;;;5.80;;
71856;SDS011;63344;46.980;28.882;2023-02-28T14:46:41;8.90;;;4.68;;
71856;SDS011;63344;46.980;28.882;2023-02-28T14:51:47;9.15;;;4.93;;
71856;SDS011;63344;46.980;28.882;2023-02-28T14:54:17;4.88;;;3.00;;
71856;SDS011;63344;46.980;28.882;2023-02-28T14:56:52;9.73;;;4.78;;
71856;SDS011;63344;46.980;28.882;2023-02-28T14:59:35;6.50;;;3.35;;
71856;SDS011;63344;46.980;28.882;2023-02-28T15:02:17;6.22;;;4.03;;
71856;SDS011;63344;46.980;28.882;2023-02-28T15:04:53;9.40;;;4.53;;
71856;SDS011;63344;46.980;28.882;2023-02-28T15:07:22;9.73;;;4.82;;
71856;SDS011;63344;46.980;28.882;2023-02-28T15:12:41;8.88;;;4.28;;
71856;SDS011;63344;46.980;28.882;2023-02-28T15:18:43;8.10;;;4.05;;
71856;SDS011;63344;46.980;28.882;2023-02-28T15:26:27;12.98;;;4.63;;
71856;SDS011;63344;46.980;28.882;2023-02-28T15:29:07;6.95;;;3.78;;
71856;SDS011;63344;46.980;28.882;2023-02-28T15:31:43;12.35;;;5.20;;
71856;SDS011;63344;46.980;28.882;2023-02-28T15:34:41;10.38;;;4.43;;
71856;SDS011;63344;46.980;28.882;2023-02-28T15:40:21;12.95;;;4.40;;
71856;SDS011;63344;46.980;28.882;2023-02-28T15:43:11;11.18;;;5.55;;
71856;SDS011;63344;46.980;28.882;2023-02-28T15:45:59;11.48;;;5.75;;
71856;SDS011;63344;46.980;28.882;2023-02-28T15:48:30;12.70;;;5.85;;
71856;SDS011;63344;46.980;28.882;2023-02-28T15:51:07;11.48;;;5.75;;
71856;SDS011;63344;46.980;28.882;2023-02-28T15:53:40;16.10;;;6.85;;
71856;SDS011;63344;46.980;28.882;2023-02-28T15:56:33;10.45;;;5.63;;
71856;SDS011;63344;46.980;28.882;2023-02-28T15:59:20;14.10;;;5.80;;
71856;SDS011;63344;46.980;28.882;2023-02-28T16:02:03;8.10;;;4.53;;
71856;SDS011;63344;46.980;28.882;2023-02-28T16:04:37;14.70;;;6.90;;
71856;SDS011;63344;46.980;28.882;2023-02-28T16:07:21;16.38;;;6.63;;
71856;SDS011;63344;46.980;28.882;2023-02-28T16:09:48;17.40;;;7.95;;
71856;SDS011;63344;46.980;28.882;2023-02-28T16:12:17;18.30;;;7.05;;
71856;SDS011;63344;46.980;28.882;2023-02-28T16:14:44;12.10;;;5.97;;
71856;SDS011;63344;46.980;28.882;2023-02-28T16:17:25;13.48;;;7.60;;
71856;SDS011;63344;46.980;28.882;2023-02-28T16:19:55;17.27;;;7.35;;
71856;SDS011;63344;46.980;28.882;2023-02-28T16:22:23;14.35;;;6.82;;
71856;SDS011;63344;46.980;28.882;2023-02-28T16:24:50;24.13;;;8.38;;
71856;SDS011;63344;46.980;28.882;2023-02-28T16:27:31;17.33;;;8.05;;
71856;SDS011;63344;46.980;28.882;2023-02-28T16:30:03;26.67;;;9.05;;
71856;SDS011;63344;46.980;28.882;2023-02-28T16:32:36;15.35;;;7.13;;
71856;SDS011;63344;46.980;28.882;2023-02-28T16:35:05;21.38;;;9.63;;
71856;SDS011;63344;46.980;28.882;2023-02-28T16:37:36;17.23;;;9.30;;
71856;SDS011;63344;46.980;28.882;2023-02-28T16:40:04;15.73;;;7.40;;
71856;SDS011;63344;46.980;28.882;2023-02-28T16:42:34;25.90;;;10.98;;
71856;SDS011;63344;46.980;28.882;2023-02-28T16:45:14;22.45;;;9.60;;
71856;SDS011;63344;46.980;28.882;2023-02-28T16:47:46;24.98;;;8.90;;
71856;SDS011;63344;46.980;28.882;2023-02-28T16:50:26;20.85;;;9.10;;
71856;SDS011;63344;46.980;28.882;2023-02-28T16:53:09;19.00;;;9.02;;
71856;SDS011;63344;46.980;28.882;2023-02-28T16:55:38;22.38;;;10.23;;
71856;SDS011;63344;46.980;28.882;2023-02-28T16:58:11;21.27;;;10.55;;
71856;SDS011;63344;46.980;28.882;2023-02-28T17:00:50;24.15;;;11.90;;
71856;SDS011;63344;46.980;28.882;2023-02-28T17:03:23;26.42;;;10.10;;
71856;SDS011;63344;46.980;28.882;2023-02-28T17:05:59;20.38;;;9.93;;
71856;SDS011;63344;46.980;28.882;2023-02-28T17:08:27;15.45;;;9.07;;
71856;SDS011;63344;46.980;28.882;2023-02-28T17:10:56;21.13;;;9.32;;
71856;SDS011;63344;46.980;28.882;2023-02-28T17:13:25;18.00;;;8.38;;
71856;SDS011;63344;46.980;28.882;2023-02-28T17:15:53;20.73;;;7.60;;
71856;SDS011;63344;46.980;28.882;2023-02-28T17:21:30;15.70;;;7.07;;
71856;SDS011;63344;46.980;28.882;2023-02-28T17:24:05;19.02;;;7.05;;
71856;SDS011;63344;46.980;28.882;2023-02-28T17:26:32;16.38;;;7.07;;
71856;SDS011;63344;46.980;28.882;2023-02-28T17:28:59;14.70;;;8.02;;
71856;SDS011;63344;46.980;28.882;2023-02-28T17:31:26;17.40;;;8.57;;
71856;SDS011;63344;46.980;28.882;2023-02-28T17:33:54;13.20;;;5.97;;
71856;SDS011;63344;46.980;28.882;2023-02-28T17:36:25;15.77;;;7.13;;
71856;SDS011;63344;46.980;28.882;2023-02-28T17:38:55;17.83;;;8.20;;
71856;SDS011;63344;46.980;28.882;2023-02-28T17:41:22;15.20;;;7.55;;
71856;SDS011;63344;46.980;28.882;2023-02-28T17:43:50;15.55;;;7.28;;
71856;SDS011;63344;46.980;28.882;2023-02-28T17:46:19;22.55;;;8.52;;
71856;SDS011;63344;46.980;28.882;2023-02-28T17:48:52;20.05;;;8.32;;
71856;SDS011;63344;46.980;28.882;2023-02-28T17:51:20;19.48;;;7.78;;
71856;SDS011;63344;46.980;28.882;2023-02-28T17:53:51;17.65;;;8.68;;
71856;SDS011;63344;46.980;28.882;2023-02-28T17:56:21;22.08;;;9.70;;
71856;SDS011;63344;46.980;28.882;2023-02-28T17:58:51;23.00;;;9.00;;
71856;SDS011;63344;46.980;28.882;2023-02-28T18:01:20;26.27;;;9.15;;
71856;SDS011;63344;46.980;28.882;2023-02-28T18:03:48;17.08;;;8.80;;
71856;SDS011;63344;46.980;28.882;2023-02-28T18:06:25;25.88;;;9.40;;
71856;SDS011;63344;46.980;28.882;2023-02-28T18:08:56;23.13;;;11.45;;
71856;SDS011;63344;46.980;28.882;2023-02-28T18:11:23;30.02;;;11.45;;
71856;SDS011;63344;46.980;28.882;2023-02-28T18:13:52;26.10;;;11.38;;